Terminal Aerodrome Forecast
Issued by NWS North Platte, NE

Home | Current Version | Previous Version | Text Only | Print | Product List | Glossary On
Versions: 1 2 3 4 5 6 7 8 9 10 11 12 13 14
701
FTUS43 KLBF 071720
TAFVTN
TAF
KVTN 071720Z 0718/0818 30034G43KT P6SM SCT070 BKN090
     FM080200 31023G30KT P6SM SCT070
     FM080900 32018G27KT P6SM SCT025=

USA.gov is the U.S. government's official web portal to all federal, state and local government web resources and services.